Time;durP1;ratioP1;P1;durP2;ratioP2;P2;SDS_P1;SDS_P2;PMS_P1;PMS_P2;Temp;Humidity;BMP_temperature;BMP_pressure;BME280_temperature;BME280_humidity;BME280_pressure;Samples;Min_cycle;Max_cycle;Signal;HPM_P1;HPM_P2
2021/11/07 00:02:29;;;;;;;16.60;10.65;;;;;;;4.89;90.34;99962.06;5041790;28;20053;-61
2021/11/07 00:05:03;;;;;;;20.83;11.13;;;;;;;4.84;90.42;99950.34;5042569;28;20032;-61
2021/11/07 00:07:45;;;;;;;17.38;10.63;;;;;;;4.88;90.35;99938.34;5042494;28;20136;-60
2021/11/07 00:10:31;;;;;;;17.90;10.75;;;;;;;4.88;90.56;99927.72;5040213;28;20040;-60
2021/11/07 00:13:05;;;;;;;17.15;9.70;;;;;;;4.85;90.49;99915.63;5037542;28;20086;-60
2021/11/07 00:15:30;;;;;;;17.38;10.55;;;;;;;4.86;89.90;99914.59;5043942;28;20040;-61
2021/11/07 00:17:57;;;;;;;22.25;10.90;;;;;;;4.90;89.86;99915.06;5047131;28;20107;-61
2021/11/07 00:20:30;;;;;;;19.67;11.13;;;;;;;4.90;90.14;99904.44;5046197;28;20087;-61
2021/11/07 00:27:50;;;;;;;18.65;11.32;;;;;;;4.94;90.37;99887.94;5047083;28;20083;-61
2021/11/07 00:38:46;;;;;;;17.77;10.75;;;;;;;4.92;90.03;99889.97;5047290;28;20091;-61
2021/11/07 00:41:13;;;;;;;17.63;10.30;;;;;;;4.94;89.99;99882.63;5043248;28;20032;-61
2021/11/07 00:43:52;;;;;;;19.38;9.98;;;;;;;4.92;89.99;99875.84;5046104;28;20033;-62
2021/11/07 00:48:51;;;;;;;16.65;10.40;;;;;;;4.89;90.19;99879.72;5046965;28;20771;-62
2021/11/07 00:51:22;;;;;;;20.67;10.90;;;;;;;4.88;90.41;99874.59;5046484;28;20045;-63
2021/11/07 00:59:08;;;;;;;19.40;10.35;;;;;;;4.95;90.08;99894.88;5046172;28;20025;-62
2021/11/07 01:01:37;;;;;;;16.48;9.30;;;;;;;4.96;89.73;99888.53;5040811;28;20703;-62
2021/11/07 01:04:04;;;;;;;18.15;10.48;;;;;;;5.03;89.36;99878.00;5045651;28;20025;-62
2021/11/07 01:06:30;;;;;;;17.38;9.68;;;;;;;5.00;89.73;99886.34;5045442;28;20494;-62
2021/11/07 01:08:55;;;;;;;14.35;7.90;;;;;;;4.96;89.48;99877.91;5046279;28;20021;-63
2021/11/07 01:11:21;;;;;;;20.92;11.00;;;;;;;4.95;89.92;99872.81;5046108;28;20087;-63
2021/11/07 01:13:46;;;;;;;14.10;8.38;;;;;;;4.88;89.74;99859.47;5047561;28;20029;-63
2021/11/07 01:16:12;;;;;;;17.75;9.80;;;;;;;4.85;90.34;99864.34;5046552;28;20730;-61
2021/11/07 01:18:37;;;;;;;16.83;9.90;;;;;;;4.86;90.50;99856.16;5045897;28;20037;-61
2021/11/07 01:21:03;;;;;;;16.67;10.40;;;;;;;4.85;90.18;99859.03;5046070;28;20045;-61
2021/11/07 01:26:04;;;;;;;21.63;11.48;;;;;;;4.93;90.52;99857.06;5045749;28;20044;-61
2021/11/07 01:28:37;;;;;;;16.77;9.75;;;;;;;4.90;90.78;99838.84;5040596;28;20135;-61
2021/11/07 01:31:03;;;;;;;17.73;10.35;;;;;;;4.88;90.71;99824.94;5039495;28;20427;-61
2021/11/07 01:33:30;;;;;;;15.95;9.10;;;;;;;4.82;90.62;99811.59;5046825;28;20093;-61
2021/11/07 01:38:27;;;;;;;17.40;10.55;;;;;;;4.84;91.14;99805.09;5046270;28;20041;-61
2021/11/07 01:41:03;;;;;;;16.88;9.70;;;;;;;4.88;90.09;99802.88;5044814;28;20043;-61
2021/11/07 01:43:28;;;;;;;19.92;11.05;;;;;;;4.91;90.14;99816.56;5041597;28;20139;-61
2021/11/07 01:46:18;;;;;;;15.43;9.73;;;;;;;4.90;90.00;99830.88;5044946;28;20479;-61
2021/11/07 01:48:47;;;;;;;18.58;9.90;;;;;;;4.80;90.44;99846.31;5041522;28;20033;-61
2021/11/07 01:51:13;;;;;;;;;;;;;;;4.80;90.62;99833.03;5045810;28;20550;-61
2021/11/07 01:53:39;;;;;;;19.50;9.65;;;;;;;4.83;90.45;99821.22;5045123;28;20000;-61
2021/11/07 01:56:10;;;;;;;21.67;9.45;;;;;;;4.77;90.61;99814.84;5040006;28;20045;-61
2021/11/07 01:58:39;;;;;;;20.88;11.85;;;;;;;4.75;90.86;99825.63;5044025;28;20427;-61
2021/11/07 02:01:05;;;;;;;21.33;10.95;;;;;;;4.81;90.38;99816.06;5038145;28;20138;-61
2021/11/07 02:03:30;;;;;;;18.23;10.30;;;;;;;4.81;90.39;99812.59;5043622;28;20144;-61
2021/11/07 02:05:56;;;;;;;21.38;11.80;;;;;;;4.84;90.18;99805.09;5044591;28;20041;-61
2021/11/07 02:08:21;;;;;;;14.68;9.05;;;;;;;4.81;90.24;99804.63;5044798;28;20106;-62
2021/11/07 02:10:48;;;;;;;22.58;11.40;;;;;;;4.83;90.29;99813.25;5041983;28;20045;-61
2021/11/07 02:13:13;;;;;;;17.75;11.00;;;;;;;4.83;90.74;99792.81;5044436;28;20041;-61
2021/11/07 02:15:38;;;;;;;13.90;9.15;;;;;;;4.80;90.68;99793.19;5040277;28;20060;-61
2021/11/07 02:18:04;;;;;;;19.02;11.15;;;;;;;4.83;90.14;99787.50;5039025;28;20028;-61
2021/11/07 02:20:37;;;;;;;14.05;9.65;;;;;;;4.90;90.42;99793.69;5038786;28;20041;-65
2021/11/07 02:23:06;;;;;;;18.58;11.00;;;;;;;4.83;90.45;99771.56;5035584;28;20287;-61
2021/11/07 02:25:32;;;;;;;18.52;11.52;;;;;;;4.82;91.00;99767.28;5040820;28;20112;-61
2021/11/07 02:27:57;;;;;;;20.48;11.77;;;;;;;4.79;91.31;99758.84;5044148;28;20036;-61
2021/11/07 02:30:23;;;;;;;19.77;11.27;;;;;;;4.84;91.25;99756.44;5022935;28;20172;-61
2021/11/07 02:32:49;;;;;;;23.20;11.75;;;;;;;4.79;91.48;99748.22;5041703;28;20036;-61
2021/11/07 02:35:14;;;;;;;20.38;11.52;;;;;;;4.84;91.24;99735.19;5041563;28;20071;-60
2021/11/07 02:37:41;;;;;;;19.83;10.95;;;;;;;4.77;90.99;99740.47;5034642;28;20072;-61
2021/11/07 02:40:07;;;;;;;19.38;11.10;;;;;;;4.78;91.00;99741.28;5041998;28;20564;-61
2021/11/07 02:42:33;;;;;;;17.40;10.90;;;;;;;4.79;90.85;99732.28;5040907;28;20223;-61
2021/11/07 02:44:59;;;;;;;15.40;10.63;;;;;;;4.78;90.83;99726.16;5042629;28;20027;-61
2021/11/07 02:47:24;;;;;;;17.70;11.13;;;;;;;4.80;90.58;99716.19;5038549;28;20037;-61
2021/11/07 02:49:50;;;;;;;17.88;9.98;;;;;;;4.82;90.37;99715.97;5044026;28;20506;-61
2021/11/07 02:52:15;;;;;;;18.15;10.45;;;;;;;4.72;90.58;99719.00;5044219;28;20303;-61
2021/11/07 02:54:42;;;;;;;13.52;8.52;;;;;;;4.78;90.51;99712.88;5045008;28;20020;-61
2021/11/07 02:57:08;;;;;;;17.67;10.80;;;;;;;4.76;91.01;99701.63;5043885;28;20048;-62
2021/11/07 02:59:36;;;;;;;18.33;10.90;;;;;;;4.72;90.85;99703.88;5044875;28;20422;-62
2021/11/07 03:02:03;;;;;;;13.00;8.88;;;;;;;4.71;90.69;99698.75;5044239;28;20052;-61
2021/11/07 03:04:29;;;;;;;17.02;10.95;;;;;;;4.74;90.64;99698.34;5044795;28;20063;-61
2021/11/07 03:06:55;;;;;;;19.80;11.50;;;;;;;4.69;90.84;99687.47;5043590;28;20123;-61
2021/11/07 03:09:22;;;;;;;18.13;10.70;;;;;;;4.69;90.62;99692.78;5044557;28;20600;-62
2021/11/07 03:11:48;;;;;;;18.33;9.93;;;;;;;4.66;90.44;99698.50;5043985;28;20052;-61
2021/11/07 03:14:16;;;;;;;19.25;11.75;;;;;;;4.67;90.48;99692.19;5043225;28;20765;-61
2021/11/07 03:16:43;;;;;;;16.63;10.98;;;;;;;4.65;90.71;99684.41;5041652;28;20051;-61
2021/11/07 03:19:09;;;;;;;19.70;11.68;;;;;;;4.64;90.67;99688.09;5043389;28;20564;-61
2021/11/07 03:21:34;;;;;;;22.48;12.80;;;;;;;4.66;90.44;99680.72;5043070;28;20037;-61
2021/11/07 03:24:00;;;;;;;16.88;9.85;;;;;;;4.67;90.00;99679.72;5043722;28;20247;-61
2021/11/07 03:26:27;;;;;;;24.95;11.65;;;;;;;4.69;90.24;99663.59;5032023;28;20037;-61
2021/11/07 03:28:58;;;;;;;22.10;12.13;;;;;;;4.64;91.56;99666.00;5044707;28;21130;-61
2021/11/07 03:34:17;;;;;;;20.20;12.25;;;;;;;4.70;90.34;99662.59;5040285;28;20129;-61
2021/11/07 03:36:45;;;;;;;20.27;10.93;;;;;;;4.66;90.60;99661.31;5042089;28;20475;-61
2021/11/07 03:39:11;;;;;;;19.17;11.40;;;;;;;4.68;90.96;99664.59;5044067;28;20036;-61
2021/11/07 03:41:36;;;;;;;20.52;9.70;;;;;;;4.65;90.54;99665.00;5043898;28;21034;-61
2021/11/07 03:44:02;;;;;;;17.27;9.57;;;;;;;4.65;90.72;99660.50;5042921;28;20136;-61
2021/11/07 03:46:28;;;;;;;15.65;9.93;;;;;;;4.66;90.65;99656.00;5041375;28;20072;-61
2021/11/07 03:48:54;;;;;;;20.17;12.05;;;;;;;4.67;90.87;99663.78;5041234;28;20040;-62
2021/11/07 03:51:23;;;;;;;17.02;11.18;;;;;;;4.71;90.77;99640.31;5042633;28;20479;-62
2021/11/07 03:53:48;;;;;;;19.88;10.90;;;;;;;4.68;91.10;99643.38;5040386;28;20033;-62
2021/11/07 03:56:14;;;;;;;20.63;11.10;;;;;;;4.68;90.95;99656.66;5043072;28;20041;-61
2021/11/07 03:58:39;;;;;;;22.58;11.65;;;;;;;4.66;90.59;99632.13;5044570;28;20040;-62
2021/11/07 04:01:04;;;;;;;14.88;10.05;;;;;;;4.63;91.15;99629.84;5043168;28;20048;-61
2021/11/07 04:03:30;;;;;;;18.33;11.45;;;;;;;4.62;90.95;99634.34;5043465;28;20053;-62
2021/11/07 04:05:55;;;;;;;21.33;12.32;;;;;;;4.63;90.96;99632.50;5041328;28;20454;-61
2021/11/07 04:08:21;;;;;;;21.73;12.23;;;;;;;4.58;91.49;99619.81;5043668;28;20037;-61
2021/11/07 04:10:46;;;;;;;20.05;12.35;;;;;;;4.60;91.38;99616.97;5043329;28;20372;-61
2021/11/07 04:13:11;;;;;;;18.52;11.40;;;;;;;4.66;91.21;99608.22;5041283;28;20025;-62
2021/11/07 04:15:37;;;;;;;24.45;13.52;;;;;;;4.63;91.34;99616.59;5042015;28;20041;-62
2021/11/07 04:18:03;;;;;;;21.85;12.27;;;;;;;4.66;91.16;99621.50;5043615;28;20037;-62
2021/11/07 04:20:28;;;;;;;15.02;9.93;;;;;;;4.61;91.46;99613.28;5042557;28;20049;-61
2021/11/07 04:22:54;;;;;;;19.30;11.70;;;;;;;4.62;91.85;99606.97;5038200;28;20476;-62
2021/11/07 04:25:19;;;;;;;17.17;11.70;;;;;;;4.58;91.79;99601.22;5036775;28;20028;-62
2021/11/07 04:27:45;;;;;;;22.08;11.75;;;;;;;4.67;92.14;99592.09;5036486;28;20025;-62
2021/11/07 04:30:10;;;;;;;17.27;10.77;;;;;;;4.74;91.42;99598.28;5040284;28;20029;-61
2021/11/07 04:32:36;;;;;;;20.73;11.80;;;;;;;4.64;91.96;99602.28;5038987;28;20033;-61
2021/11/07 04:35:02;;;;;;;27.15;11.93;;;;;;;4.66;91.97;99597.59;5019455;28;20067;-61
2021/11/07 04:37:28;;;;;;;17.88;10.82;;;;;;;4.74;91.47;99597.44;5044021;28;20036;-62
2021/11/07 04:39:53;;;;;;;18.65;9.82;;;;;;;4.69;92.10;99595.38;5040818;28;20375;-61
2021/11/07 04:42:19;;;;;;;21.20;11.75;;;;;;;4.71;92.33;99589.88;5039333;28;20042;-62
2021/11/07 04:44:45;;;;;;;17.92;11.60;;;;;;;4.70;92.34;99581.09;5043144;28;20021;-61
2021/11/07 04:47:10;;;;;;;23.48;12.50;;;;;;;4.73;92.22;99586.00;5043305;28;20044;-60
2021/11/07 04:49:36;;;;;;;20.75;11.65;;;;;;;4.81;92.42;99576.25;5041583;28;20033;-63
2021/11/07 04:52:01;;;;;;;21.63;12.60;;;;;;;4.78;92.27;99577.44;5039958;28;20033;-61
2021/11/07 04:54:27;;;;;;;20.27;12.73;;;;;;;4.77;92.75;99567.84;5033240;28;20037;-62
2021/11/07 04:56:53;;;;;;;22.13;12.90;;;;;;;4.78;92.70;99581.94;5040155;28;20044;-60
2021/11/07 04:59:18;;;;;;;19.35;11.60;;;;;;;4.77;93.00;99591.75;5044106;28;20037;-62
2021/11/07 05:01:44;;;;;;;21.73;13.18;;;;;;;4.77;92.72;99581.13;5046451;28;20041;-62
2021/11/07 05:04:09;;;;;;;20.85;13.23;;;;;;;4.89;93.06;99582.22;5047097;28;20086;-62
2021/11/07 05:06:36;;;;;;;22.50;13.65;;;;;;;4.81;92.87;99577.06;5046275;28;20041;-62
2021/11/07 05:09:01;;;;;;;19.85;13.43;;;;;;;4.82;93.22;99570.75;5045671;28;20029;-61
2021/11/07 05:11:27;;;;;;;17.33;10.57;;;;;;;4.88;92.80;99551.34;5046557;28;20852;-60
2021/11/07 05:13:52;;;;;;;23.83;13.45;;;;;;;4.82;93.30;99549.50;5046598;28;20039;-62
2021/11/07 05:16:18;;;;;;;22.08;13.18;;;;;;;4.85;93.52;99549.09;5046126;28;20040;-60
2021/11/07 05:18:44;;;;;;;20.85;13.20;;;;;;;4.84;93.75;99536.00;5045573;28;20095;-62
2021/11/07 05:21:10;;;;;;;22.88;13.00;;;;;;;4.83;93.97;99540.50;5045312;28;20060;-61
2021/11/07 05:23:36;;;;;;;23.48;11.60;;;;;;;4.85;93.62;99551.75;5057962;28;20110;-62
2021/11/07 05:26:01;;;;;;;21.45;14.02;;;;;;;4.91;93.57;99550.94;5044828;28;20558;-62
2021/11/07 05:28:27;;;;;;;23.05;12.55;;;;;;;4.95;93.69;99557.50;5046456;28;20834;-62
2021/11/07 05:30:52;;;;;;;23.10;12.75;;;;;;;4.98;93.21;99543.81;5046079;28;20053;-61
2021/11/07 05:33:18;;;;;;;21.73;10.93;;;;;;;5.01;93.28;99532.00;5032570;28;20045;-61
2021/11/07 05:35:44;;;;;;;21.75;11.88;;;;;;;5.04;92.75;99528.13;5045553;28;20048;-61
2021/11/07 05:38:09;;;;;;;19.73;12.00;;;;;;;4.97;93.43;99546.69;5045688;28;20037;-60
2021/11/07 05:40:35;;;;;;;22.77;12.43;;;;;;;4.93;93.36;99516.22;5046025;28;20099;-62
2021/11/07 05:43:00;;;;;;;20.00;13.05;;;;;;;4.92;93.32;99515.41;5046688;28;20099;-62
2021/11/07 05:45:26;;;;;;;19.58;12.25;;;;;;;4.92;93.48;99528.69;5044572;28;20449;-61
2021/11/07 05:47:51;;;;;;;23.10;12.02;;;;;;;4.83;93.42;99516.59;5045281;28;20087;-60
2021/11/07 05:50:17;;;;;;;22.10;12.50;;;;;;;4.80;93.59;99522.31;5044398;28;20036;-62
2021/11/07 05:52:43;;;;;;;20.42;11.95;;;;;;;4.76;94.17;99518.41;5046287;28;20033;-62
2021/11/07 05:55:09;;;;;;;19.98;11.88;;;;;;;4.76;93.81;99521.06;5046414;28;20028;-62
2021/11/07 05:57:34;;;;;;;27.00;11.05;;;;;;;4.79;93.76;99520.66;5045386;28;20071;-62
2021/11/07 06:00:00;;;;;;;20.52;12.30;;;;;;;4.74;93.88;99515.13;5042467;28;20028;-61
2021/11/07 06:02:25;;;;;;;21.42;12.55;;;;;;;4.78;94.11;99519.03;5041591;28;20123;-60
2021/11/07 06:04:51;;;;;;;28.08;17.40;;;;;;;4.84;93.94;99514.75;5043481;28;20029;-62
2021/11/07 06:07:16;;;;;;;26.35;14.07;;;;;;;4.82;93.90;99522.09;5043761;28;20040;-61
2021/11/07 06:09:42;;;;;;;25.02;14.55;;;;;;;4.92;93.77;99512.75;5044290;28;20029;-60
2021/11/07 06:12:07;;;;;;;22.70;12.85;;;;;;;4.89;93.71;99513.16;5043650;28;20507;-60
2021/11/07 06:14:33;;;;;;;21.27;12.93;;;;;;;4.84;93.95;99520.91;5045798;28;20036;-60
2021/11/07 06:16:58;;;;;;;18.10;11.52;;;;;;;4.89;94.12;99526.44;5043782;28;20094;-60
2021/11/07 06:19:24;;;;;;;23.33;12.48;;;;;;;4.90;94.22;99521.94;5042367;28;20089;-62
2021/11/07 06:21:51;;;;;;;18.50;11.80;;;;;;;4.87;94.36;99512.53;5038345;28;20029;-62
2021/11/07 06:24:23;;;;;;;20.00;13.70;;;;;;;4.89;94.39;99525.59;5043594;28;20116;-61
2021/11/07 06:26:49;;;;;;;19.08;12.60;;;;;;;4.91;94.58;99536.84;5041065;28;20441;-60
2021/11/07 06:29:15;;;;;;;21.65;12.50;;;;;;;4.95;94.77;99536.25;5041257;28;20040;-60
2021/11/07 06:31:40;;;;;;;16.80;11.18;;;;;;;4.98;94.40;99516.44;5039971;28;20045;-63
2021/11/07 06:34:06;;;;;;;19.80;12.48;;;;;;;4.92;94.38;99499.47;5042063;28;20037;-63
2021/11/07 06:36:32;;;;;;;17.83;12.80;;;;;;;4.95;94.89;99517.66;5040655;28;20037;-62
2021/11/07 06:38:58;;;;;;;21.30;12.23;;;;;;;4.98;94.61;99511.94;5038909;28;20037;-62
2021/11/07 06:41:23;;;;;;;17.08;10.52;;;;;;;5.00;94.66;99506.44;5041591;28;20522;-62
2021/11/07 06:43:49;;;;;;;16.60;11.45;;;;;;;5.09;94.86;99496.44;5035640;28;20033;-60
2021/11/07 06:46:14;;;;;;;17.75;10.80;;;;;;;4.96;95.18;99503.34;5041473;28;20108;-63
2021/11/07 06:48:41;;;;;;;21.17;11.73;;;;;;;4.97;95.53;99501.53;5042490;28;20506;-63
2021/11/07 06:51:07;;;;;;;16.50;11.25;;;;;;;4.98;95.60;99489.88;5040330;28;20064;-62
2021/11/07 06:53:33;;;;;;;17.65;10.52;;;;;;;5.04;95.46;99501.53;5042724;28;20059;-63
2021/11/07 06:55:58;;;;;;;17.77;10.68;;;;;;;5.07;95.31;99501.97;5042411;28;20045;-62
2021/11/07 06:58:24;;;;;;;15.95;10.40;;;;;;;5.02;95.33;99500.91;5037207;28;20087;-62
2021/11/07 07:00:51;;;;;;;20.10;11.32;;;;;;;5.02;95.64;99515.03;5038789;28;20437;-62
2021/11/07 07:03:17;;;;;;;16.00;10.15;;;;;;;5.04;95.79;99515.66;5039769;28;20064;-62
2021/11/07 07:05:43;;;;;;;12.98;9.23;;;;;;;5.13;95.56;99516.28;5040258;28;20045;-62
2021/11/07 07:08:16;;;;;;;16.45;10.10;;;;;;;5.09;95.44;99515.88;5040924;28;20393;-62
2021/11/07 07:10:51;;;;;;;16.63;10.82;;;;;;;5.03;95.55;99518.50;5038722;28;20627;-62
2021/11/07 07:13:25;;;;;;;20.33;12.48;;;;;;;5.11;95.82;99523.63;5030117;28;20024;-62
2021/11/07 07:16:02;;;;;;;20.60;11.05;;;;;;;5.12;95.45;99541.25;5039479;28;20461;-62
2021/11/07 07:18:43;;;;;;;18.23;12.10;;;;;;;5.30;95.20;99553.97;5041037;28;20051;-62
2021/11/07 07:21:17;;;;;;;15.68;9.27;;;;;;;5.39;94.70;99536.78;5039839;28;20550;-62
2021/11/07 07:29:09;;;;;;;8.25;5.95;;;;;;;5.57;93.17;99491.84;5031794;28;20375;-62
2021/11/07 07:34:23;;;;;;;11.50;7.88;;;;;;;5.94;92.02;99488.81;5010396;28;20036;-62
2021/11/07 07:36:48;;;;;;;13.10;8.07;;;;;;;6.10;91.35;99485.72;5040151;28;20052;-62
2021/11/07 07:39:14;;;;;;;13.15;8.85;;;;;;;6.10;91.76;99480.41;5040076;28;20029;-62
2021/11/07 07:41:39;;;;;;;10.82;7.93;;;;;;;6.09;91.71;99484.09;5030265;28;20507;-62
2021/11/07 07:44:08;;;;;;;13.95;10.13;;;;;;;6.12;91.21;99466.91;5030728;28;20506;-62
2021/11/07 07:46:35;;;;;;;13.13;8.32;;;;;;;6.33;90.74;99473.81;5039817;28;20383;-61
2021/11/07 07:49:01;;;;;;;11.80;8.82;;;;;;;6.22;91.23;99464.63;5037327;28;20037;-62
2021/11/07 07:51:29;;;;;;;10.02;6.80;;;;;;;6.31;90.16;99467.88;5039970;28;20145;-62
2021/11/07 07:53:54;;;;;;;10.50;6.57;;;;;;;6.41;90.02;99463.75;5042549;28;20180;-63
2021/11/07 07:56:20;;;;;;;13.35;9.68;;;;;;;6.15;91.19;99469.16;5028254;28;20049;-61
2021/11/07 07:58:45;;;;;;;17.83;11.40;;;;;;;6.07;92.27;99480.81;5030896;28;20029;-61
2021/11/07 08:01:11;;;;;;;13.50;9.05;;;;;;;6.22;92.23;99483.25;5029390;28;20041;-61
2021/11/07 08:03:37;;;;;;;14.35;8.90;;;;;;;6.32;91.94;99488.16;5033986;28;20538;-61
2021/11/07 08:06:02;;;;;;;11.63;8.32;;;;;;;6.18;92.27;99501.47;5034627;28;20037;-61
2021/11/07 08:08:29;;;;;;;14.20;10.90;;;;;;;6.10;92.52;99514.19;5034702;28;20036;-61
2021/11/07 08:10:55;;;;;;;15.90;9.98;;;;;;;6.05;93.27;99518.28;5027864;28;20147;-61
2021/11/07 08:13:20;;;;;;;15.32;11.57;;;;;;;6.08;93.30;99524.22;5034557;28;20068;-61
2021/11/07 08:15:45;;;;;;;14.02;8.82;;;;;;;6.09;93.22;99521.34;5036469;28;20562;-61
2021/11/07 08:18:11;;;;;;;23.17;13.90;;;;;;;6.13;92.93;99521.75;5035305;28;20033;-61
2021/11/07 08:20:36;;;;;;;25.77;15.48;;;;;;;6.40;92.64;99517.22;5038167;28;20384;-61
2021/11/07 08:23:02;;;;;;;11.75;8.30;;;;;;;6.44;91.57;99524.59;5037982;28;20025;-61
2021/11/07 08:25:27;;;;;;;21.17;12.40;;;;;;;6.26;92.35;99519.91;5036343;28;20049;-61
2021/11/07 08:28:00;;;;;;;12.32;8.20;;;;;;;6.32;92.49;99515.59;5042225;28;20028;-61
2021/11/07 08:30:26;;;;;;;11.90;7.30;;;;;;;6.21;93.05;99525.00;5028108;28;20048;-61
2021/11/07 08:32:52;;;;;;;12.07;7.15;;;;;;;6.21;92.94;99519.69;5041849;28;20434;-61
2021/11/07 08:35:18;;;;;;;7.80;5.65;;;;;;;6.23;93.20;99507.00;5043446;28;20033;-61
2021/11/07 08:40:12;;;;;;;17.17;9.27;;;;;;;6.94;90.13;99497.38;5045993;28;20493;-60
2021/11/07 08:42:46;;;;;;;10.40;6.75;;;;;;;7.48;88.43;99498.69;5039718;28;20644;-61
2021/11/07 09:09:16;;;;;;;7.15;4.93;;;;;;;7.17;89.95;99426.72;5034991;28;20564;-61
2021/11/07 09:11:54;;;;;;;7.35;5.20;;;;;;;7.26;90.05;99436.06;5040901;28;20430;-61
2021/11/07 09:14:23;;;;;;;8.50;5.30;;;;;;;7.28;89.87;99447.34;5038478;28;20044;-61
2021/11/07 09:16:49;;;;;;;8.15;5.60;;;;;;;7.16;90.06;99449.06;5043195;28;20056;-61
2021/11/07 09:19:18;;;;;;;8.32;5.43;;;;;;;7.12;90.45;99452.16;5056199;28;20025;-61
2021/11/07 09:21:47;;;;;;;11.50;4.90;;;;;;;7.09;90.62;99454.44;5045835;28;20049;-62
2021/11/07 09:24:23;;;;;;;10.30;6.57;;;;;;;7.18;90.31;99455.81;5045683;28;20450;-61
2021/11/07 09:26:49;;;;;;;8.00;5.47;;;;;;;7.11;90.53;99461.22;5025030;28;20051;-61
2021/11/07 09:29:55;;;;;;;8.88;5.47;;;;;;;7.26;90.24;99460.06;5046014;28;20025;-61
2021/11/07 09:34:43;;;;;;;8.65;3.80;;;;;;;7.09;90.23;99487.25;5046414;28;20327;-61
2021/11/07 09:37:21;;;;;;;7.53;4.63;;;;;;;7.21;90.20;99481.22;5044541;28;20036;-61
2021/11/07 09:39:50;;;;;;;6.78;4.82;;;;;;;7.29;90.46;99492.47;5036938;28;20029;-61
2021/11/07 09:44:45;;;;;;;6.50;5.07;;;;;;;7.28;90.13;99498.00;5045286;28;20037;-61
2021/11/07 09:47:12;;;;;;;8.98;5.07;;;;;;;7.30;89.88;99506.63;5045804;28;20048;-61
2021/11/07 09:49:48;;;;;;;7.63;5.10;;;;;;;7.31;90.63;99502.91;5045056;28;20040;-62
2021/11/07 09:52:22;;;;;;;6.07;4.55;;;;;;;7.20;90.48;99506.25;5041535;28;20068;-62
2021/11/07 09:54:52;;;;;;;8.13;4.63;;;;;;;7.18;90.57;99503.78;5041961;28;20502;-61
2021/11/07 09:57:21;;;;;;;6.45;4.57;;;;;;;7.22;90.52;99498.88;5045137;28;20068;-60
2021/11/07 09:59:55;;;;;;;6.70;4.53;;;;;;;7.22;90.44;99493.53;5044696;28;20037;-61
2021/11/07 10:02:21;;;;;;;9.70;5.20;;;;;;;7.30;90.58;99495.94;5039517;28;20127;-61
2021/11/07 10:04:47;;;;;;;6.60;4.65;;;;;;;7.33;90.63;99492.84;5045672;28;20025;-61
2021/11/07 10:07:22;;;;;;;6.85;4.32;;;;;;;7.43;89.66;99487.03;5029338;28;20049;-62
2021/11/07 10:09:53;;;;;;;6.20;4.72;;;;;;;7.40;90.70;99474.16;5045005;28;20029;-61
2021/11/07 10:12:22;;;;;;;6.32;4.03;;;;;;;7.51;89.30;99498.28;5044217;28;20091;-61
2021/11/07 10:14:55;;;;;;;7.32;4.63;;;;;;;7.53;89.49;99500.72;5045504;28;20041;-60
2021/11/07 10:17:23;;;;;;;8.13;4.72;;;;;;;7.64;89.10;99504.53;5044507;28;20045;-61
2021/11/07 10:20:03;;;;;;;6.53;4.57;;;;;;;7.56;89.45;99500.28;5044732;28;20033;-61
2021/11/07 10:22:31;;;;;;;6.67;4.97;;;;;;;7.39;90.18;99500.00;5027671;28;20045;-61
2021/11/07 10:24:57;;;;;;;6.47;4.60;;;;;;;7.37;91.29;99498.59;5022627;28;20024;-61
2021/11/07 10:27:23;;;;;;;7.13;4.50;;;;;;;7.41;91.25;99497.09;5043536;28;20183;-61
2021/11/07 10:29:51;;;;;;;7.82;4.35;;;;;;;7.37;90.81;99491.41;5042638;28;20463;-61
2021/11/07 10:32:29;;;;;;;7.45;4.93;;;;;;;7.32;91.42;99484.03;5039417;28;20052;-61
2021/11/07 10:35:42;;;;;;;9.18;4.35;;;;;;;7.34;91.29;99491.81;5044284;28;20565;-62
2021/11/07 10:38:20;;;;;;;7.72;4.50;;;;;;;7.24;91.44;99491.44;5044551;28;20334;-61
2021/11/07 10:41:02;;;;;;;6.95;4.82;;;;;;;7.27;91.62;99491.06;5044450;28;20565;-61
2021/11/07 10:46:38;;;;;;;7.68;5.13;;;;;;;7.17;92.86;99488.03;5042933;28;20049;-61
2021/11/07 10:52:07;;;;;;;6.65;4.65;;;;;;;7.01;94.11;99487.47;5034123;28;20077;-61
2021/11/07 10:54:39;;;;;;;6.40;4.35;;;;;;;6.99;94.15;99489.56;5056367;28;20075;-61
2021/11/07 10:57:18;;;;;;;8.27;5.60;;;;;;;6.97;94.61;99491.63;5041952;28;20048;-61
2021/11/07 11:00:29;;;;;;;7.47;4.95;;;;;;;6.94;95.67;99501.88;5043962;28;20025;-61
2021/11/07 11:02:59;;;;;;;8.38;5.78;;;;;;;6.80;95.59;99496.59;5020609;28;20064;-61
2021/11/07 11:06:03;;;;;;;8.82;6.05;;;;;;;6.85;95.96;99487.97;5043302;28;20045;-61
2021/11/07 11:09:00;;;;;;;8.70;6.45;;;;;;;6.74;96.65;99483.28;5042892;28;20431;-61
2021/11/07 11:11:35;;;;;;;9.57;6.10;;;;;;;6.86;96.97;99485.13;5025373;28;20038;-61
2021/11/07 11:19:32;;;;;;;9.38;6.15;;;;;;;6.84;95.87;99483.66;5044650;28;20045;-61
2021/11/07 11:30:09;;;;;;;8.82;6.35;;;;;;;6.95;96.54;99472.34;5044758;28;20086;-61
2021/11/07 11:32:52;;;;;;;16.88;7.78;;;;;;;6.94;96.29;99470.72;5038316;28;20117;-61
2021/11/07 11:35:40;;;;;;;5.57;3.97;;;;;;;6.90;96.18;99470.31;5042701;28;20079;-61
2021/11/07 11:38:16;;;;;;;9.77;6.00;;;;;;;6.97;96.67;99470.28;5039039;28;20535;-60
2021/11/07 11:43:25;;;;;;;8.13;5.20;;;;;;;7.07;95.83;99462.66;5070101;28;20116;-61
2021/11/07 11:45:59;;;;;;;9.15;5.53;;;;;;;7.20;95.48;99459.09;5044033;28;20041;-61
2021/11/07 11:56:25;;;;;;;8.98;5.85;;;;;;;7.66;92.84;99446.44;5015560;28;20048;-60
2021/11/07 11:59:01;;;;;;;7.80;5.30;;;;;;;7.69;92.92;99441.50;5039503;28;20037;-61
2021/11/07 12:01:37;;;;;;;10.15;6.00;;;;;;;8.22;91.38;99442.84;5041401;28;20042;-61
2021/11/07 12:04:15;;;;;;;7.88;5.25;;;;;;;8.20;90.91;99426.22;5043075;28;20578;-60
2021/11/07 12:09:55;;;;;;;7.63;5.15;;;;;;;8.25;90.23;99426.38;5044929;28;20082;-62
2021/11/07 12:12:31;;;;;;;7.10;5.13;;;;;;;7.94;92.14;99433.47;5043944;28;20048;-62
2021/11/07 12:17:43;;;;;;;7.18;4.72;;;;;;;7.65;93.07;99442.16;5047316;28;20049;-61
2021/11/07 12:20:25;;;;;;;9.80;6.45;;;;;;;7.74;92.57;99433.66;5046810;28;20080;-62
2021/11/07 12:23:11;;;;;;;12.38;5.45;;;;;;;7.91;92.14;99427.75;5042989;28;20037;-62
2021/11/07 12:25:36;;;;;;;10.23;5.78;;;;;;;7.98;91.64;99433.84;5032440;28;20499;-61
2021/11/07 12:28:02;;;;;;;8.20;5.13;;;;;;;7.90;92.02;99426.13;5047249;28;20064;-61
2021/11/07 12:30:29;;;;;;;9.93;5.60;;;;;;;7.80;92.34;99426.63;5046240;28;20051;-61
2021/11/07 12:33:01;;;;;;;11.80;5.25;;;;;;;7.86;92.35;99436.44;5045676;28;20037;-61
2021/11/07 12:35:56;;;;;;;7.32;5.45;;;;;;;7.98;92.37;99434.66;5045769;28;20794;-61
2021/11/07 12:41:11;;;;;;;8.27;5.68;;;;;;;7.88;93.18;99417.53;5044537;28;20380;-62
2021/11/07 12:43:40;;;;;;;8.90;5.70;;;;;;;7.80;92.70;99410.63;5047884;28;20613;-61
2021/11/07 12:46:16;;;;;;;8.43;5.50;;;;;;;7.98;92.52;99407.97;5045601;28;20037;-61
2021/11/07 12:48:50;;;;;;;8.93;4.90;;;;;;;8.07;92.22;99415.69;5046086;28;20036;-61
2021/11/07 12:51:18;;;;;;;8.27;5.25;;;;;;;8.18;91.69;99407.75;5044620;28;20069;-61
2021/11/07 12:54:07;;;;;;;11.60;5.47;;;;;;;8.14;91.52;99405.78;5044591;28;20044;-61
2021/11/07 12:56:56;;;;;;;8.13;5.50;;;;;;;8.05;92.10;99404.41;5046142;28;20826;-61
2021/11/07 12:59:34;;;;;;;7.78;5.35;;;;;;;7.89;92.54;99403.97;5044869;28;20028;-61
2021/11/07 13:02:18;;;;;;;7.90;4.60;;;;;;;7.96;92.25;99398.53;5035050;28;20080;-61
2021/11/07 13:04:45;;;;;;;7.15;5.20;;;;;;;7.99;92.92;99403.47;5043763;28;20043;-61
2021/11/07 13:07:24;;;;;;;7.60;4.93;;;;;;;8.00;92.59;99400.56;5045721;28;20144;-62
2021/11/07 13:09:58;;;;;;;8.00;5.35;;;;;;;7.98;92.78;99397.28;5046300;28;20017;-62
2021/11/07 13:12:28;;;;;;;9.13;5.22;;;;;;;7.97;92.69;99401.00;5046227;28;20045;-61
2021/11/07 13:18:43;;;;;;;7.95;5.38;;;;;;;8.23;92.08;99400.94;5039589;28;20080;-61
2021/11/07 13:23:48;;;;;;;6.72;4.55;;;;;;;8.60;89.49;99415.13;5046647;28;20521;-61
2021/11/07 13:26:35;;;;;;;13.57;5.85;;;;;;;8.68;87.91;99401.44;5042949;28;20147;-61
2021/11/07 13:29:09;;;;;;;13.38;5.57;;;;;;;8.61;88.66;99384.66;5045686;28;20033;-61
2021/11/07 13:31:43;;;;;;;12.52;5.13;;;;;;;8.84;88.02;99387.47;5051629;28;20045;-60
2021/11/07 13:34:17;;;;;;;10.70;3.50;;;;;;;8.97;81.22;99383.78;5045502;28;20029;-61
2021/11/07 13:36:43;;;;;;;9.23;3.60;;;;;;;9.09;77.52;99393.69;5041916;28;20742;-61